Time;durP1;ratioP1;P1;durP2;ratioP2;P2;SDS_P1;SDS_P2;PMS_P1;PMS_P2;Temp;Humidity;BMP_temperature;BMP_pressure;BME280_temperature;BME280_humidity;BME280_pressure;Samples;Min_cycle;Max_cycle;Signal;HPM_P1;HPM_P2
2021/11/05 00:01:07;;;;;;;222.82;135.05;;;21.30;90.70;;;;;;5075428;28;20017;-60
2021/11/05 00:03:34;;;;;;;227.05;138.52;;;21.30;90.70;;;;;;5074979;28;20125;-59
2021/11/05 00:06:02;;;;;;;218.85;134.88;;;21.30;90.60;;;;;;5075002;28;20077;-61
2021/11/05 00:08:29;;;;;;;223.52;138.20;;;21.30;90.60;;;;;;5074609;28;20047;-69
2021/11/05 00:10:56;;;;;;;262.83;163.60;;;21.30;90.60;;;;;;5075682;28;20025;-63
2021/11/05 00:13:24;;;;;;;204.35;126.97;;;21.30;90.70;;;;;;5075317;28;20035;-64
2021/11/05 00:15:51;;;;;;;224.60;135.15;;;21.30;90.70;;;;;;5075121;28;20035;-58
2021/11/05 00:18:18;;;;;;;236.93;145.98;;;21.40;90.60;;;;;;5075342;28;20360;-61
2021/11/05 00:20:46;;;;;;;233.13;148.50;;;21.40;90.60;;;;;;5075638;28;20027;-66
2021/11/05 00:23:16;;;;;;;223.18;139.05;;;21.40;90.60;;;;;;5074381;28;20040;-59
2021/11/05 00:25:45;;;;;;;249.88;155.32;;;21.40;90.70;;;;;;5075864;28;20020;-63
2021/11/05 00:28:12;;;;;;;256.50;157.30;;;21.40;90.60;;;;;;5075398;28;20107;-67
2021/11/05 00:30:41;;;;;;;246.60;158.32;;;21.40;90.70;;;;;;5075037;28;20021;-65
2021/11/05 00:33:08;;;;;;;263.23;157.40;;;21.40;90.70;;;;;;5075031;28;20029;-67
2021/11/05 00:35:36;;;;;;;235.07;146.18;;;21.50;90.60;;;;;;5075443;28;20017;-67
2021/11/05 00:38:03;;;;;;;256.52;159.10;;;21.40;90.60;;;;;;5074924;28;20421;-68
2021/11/05 00:40:31;;;;;;;256.30;152.43;;;21.50;90.50;;;;;;5075054;28;20494;-65
2021/11/05 00:42:59;;;;;;;236.45;148.85;;;21.50;90.40;;;;;;5075220;28;20032;-65
2021/11/05 00:45:26;;;;;;;234.32;148.73;;;21.50;90.30;;;;;;5074938;28;20028;-64
2021/11/05 00:47:54;;;;;;;232.52;143.50;;;21.50;90.30;;;;;;5075007;28;20471;-67
2021/11/05 00:50:21;;;;;;;229.65;142.98;;;21.50;90.20;;;;;;5074851;28;20024;-65
2021/11/05 00:52:49;;;;;;;228.65;144.48;;;21.50;90.20;;;;;;5074915;28;20448;-68
2021/11/05 00:55:17;;;;;;;222.77;137.48;;;21.60;90.20;;;;;;5073427;28;20048;-65
2021/11/05 00:57:44;;;;;;;231.50;143.50;;;21.60;90.10;;;;;;5073956;28;20025;-65
2021/11/05 01:00:14;;;;;;;241.27;153.68;;;21.50;90.10;;;;;;5074256;28;20028;-64
2021/11/05 01:02:42;;;;;;;232.50;148.05;;;21.60;90.20;;;;;;5074178;28;20032;-63
2021/11/05 01:05:14;;;;;;;210.88;129.35;;;21.60;90.20;;;;;;5075373;28;20508;-64
2021/11/05 01:07:41;;;;;;;214.20;134.50;;;21.60;90.20;;;;;;5075145;28;20025;-68
2021/11/05 01:10:10;;;;;;;223.50;140.50;;;21.60;90.20;;;;;;5074590;28;20123;-62
2021/11/05 01:12:38;;;;;;;226.38;142.73;;;21.60;90.10;;;;;;5074030;28;20094;-62
2021/11/05 01:15:07;;;;;;;234.48;146.35;;;21.70;90.10;;;;;;5074436;28;20356;-63
2021/11/05 01:17:35;;;;;;;233.30;146.90;;;21.70;90.20;;;;;;5074851;28;20058;-60
2021/11/05 01:20:04;;;;;;;242.70;153.00;;;21.70;90.10;;;;;;5074600;28;20021;-61
2021/11/05 01:22:31;;;;;;;224.52;145.85;;;21.80;90.10;;;;;;5074550;28;20070;-62
2021/11/05 01:24:59;;;;;;;215.77;132.98;;;21.80;90.20;;;;;;5074867;28;20025;-66
2021/11/05 01:27:26;;;;;;;223.90;142.98;;;21.80;90.00;;;;;;5074698;28;20032;-68
2021/11/05 01:29:57;;;;;;;223.27;139.45;;;21.80;89.90;;;;;;5074615;28;20142;-65
2021/11/05 01:32:25;;;;;;;211.02;140.05;;;21.80;89.80;;;;;;5074143;28;20042;-60
2021/11/05 01:34:54;;;;;;;204.90;127.97;;;21.90;89.70;;;;;;5074040;28;20118;-68
2021/11/05 01:37:21;;;;;;;218.57;135.90;;;21.90;89.70;;;;;;5074276;28;20027;-61
2021/11/05 01:39:48;;;;;;;235.63;147.15;;;21.90;89.60;;;;;;5074431;28;20020;-66
2021/11/05 01:42:16;;;;;;;219.32;140.88;;;22.00;89.40;;;;;;5073591;28;20032;-61
2021/11/05 01:44:43;;;;;;;183.98;114.68;;;22.00;89.60;;;;;;5073886;28;20032;-60
2021/11/05 01:47:11;;;;;;;198.02;123.68;;;22.10;89.30;;;;;;5073927;28;20070;-64
2021/11/05 01:49:38;;;;;;;183.27;118.72;;;22.10;89.10;;;;;;5073841;28;20035;-62
2021/11/05 01:52:07;;;;;;;188.13;118.15;;;22.20;88.80;;;;;;5073822;28;20044;-56
2021/11/05 01:54:35;;;;;;;200.13;126.82;;;22.20;88.60;;;;;;5072809;28;20411;-67
2021/11/05 01:57:03;;;;;;;177.13;117.13;;;22.20;88.50;;;;;;5073317;28;20028;-70
2021/11/05 01:59:32;;;;;;;195.63;125.38;;;22.30;88.30;;;;;;5073939;28;20017;-69
2021/11/05 02:02:03;;;;;;;171.65;111.90;;;22.40;88.00;;;;;;5073694;28;20021;-65
2021/11/05 02:04:30;;;;;;;185.13;115.47;;;22.40;87.70;;;;;;5073600;28;20488;-66
2021/11/05 02:06:58;;;;;;;152.25;99.55;;;22.40;87.90;;;;;;5073226;28;20197;-64
2021/11/05 02:09:28;;;;;;;162.43;105.03;;;22.40;87.40;;;;;;5072732;28;20116;-62
2021/11/05 02:11:58;;;;;;;167.20;107.00;;;22.50;87.50;;;;;;5073050;28;20032;-63
2021/11/05 02:14:28;;;;;;;156.93;100.57;;;22.50;87.60;;;;;;5073172;28;20052;-65
2021/11/05 02:16:58;;;;;;;141.30;91.57;;;22.60;87.20;;;;;;5073731;28;20031;-62
2021/11/05 02:19:29;;;;;;;129.45;85.13;;;22.60;86.50;;;;;;5073396;28;20029;-64
2021/11/05 02:21:58;;;;;;;155.32;98.88;;;22.70;86.20;;;;;;5072891;28;20028;-62
2021/11/05 02:24:27;;;;;;;149.13;93.85;;;22.70;86.20;;;;;;5072791;28;20082;-59
2021/11/05 02:26:55;;;;;;;129.27;83.47;;;22.70;86.50;;;;;;5072832;28;20082;-59
2021/11/05 02:29:23;;;;;;;131.57;85.22;;;22.80;86.00;;;;;;5073251;28;20028;-64
2021/11/05 02:31:52;;;;;;;133.63;86.93;;;22.80;86.20;;;;;;5072797;28;20051;-66
2021/11/05 02:34:20;;;;;;;118.72;75.45;;;22.80;85.80;;;;;;5072890;28;20127;-59
2021/11/05 02:36:47;;;;;;;126.07;76.78;;;22.80;85.60;;;;;;5072717;28;20033;-63
2021/11/05 02:39:15;;;;;;;130.00;85.47;;;22.80;85.60;;;;;;5073039;28;20035;-67
2021/11/05 02:41:45;;;;;;;121.28;78.32;;;22.80;85.90;;;;;;5073158;28;20029;-58
2021/11/05 02:44:12;;;;;;;115.07;72.90;;;22.80;86.00;;;;;;5072610;28;20383;-66
2021/11/05 02:46:40;;;;;;;122.20;77.40;;;22.80;85.90;;;;;;5072558;28;20032;-63
2021/11/05 02:49:09;;;;;;;108.82;70.07;;;22.80;86.20;;;;;;5072957;28;20024;-56
2021/11/05 02:51:38;;;;;;;94.72;64.35;;;22.80;86.00;;;;;;5072792;28;20028;-61
2021/11/05 02:54:07;;;;;;;104.90;71.70;;;22.80;85.60;;;;;;5072918;28;20157;-58
2021/11/05 02:56:35;;;;;;;108.43;73.60;;;22.90;86.00;;;;;;5072140;28;20056;-58
2021/11/05 02:59:04;;;;;;;84.20;54.65;;;22.80;86.10;;;;;;5072561;28;20064;-58
2021/11/05 03:01:35;;;;;;;100.38;63.05;;;22.80;86.20;;;;;;5072438;28;20027;-57
2021/11/05 03:04:09;;;;;;;96.95;65.63;;;22.80;86.20;;;;;;5072595;28;20028;-62
2021/11/05 03:06:39;;;;;;;92.05;58.58;;;22.90;86.20;;;;;;5070853;28;20020;-57
2021/11/05 03:09:17;;;;;;;109.03;69.55;;;22.80;86.20;;;;;;5072657;28;20016;-65
2021/11/05 03:11:47;;;;;;;94.32;65.13;;;22.80;86.30;;;;;;5072410;28;20037;-58
2021/11/05 03:14:16;;;;;;;96.32;60.92;;;22.80;86.40;;;;;;5072473;28;20031;-64
2021/11/05 03:16:44;;;;;;;115.20;73.60;;;22.80;86.10;;;;;;5072264;28;20017;-64
2021/11/05 03:19:11;;;;;;;96.97;63.50;;;22.80;86.40;;;;;;5072307;28;20510;-66
2021/11/05 03:21:39;;;;;;;92.18;61.78;;;22.90;86.10;;;;;;5072141;28;20036;-62
2021/11/05 03:24:06;;;;;;;90.28;59.63;;;22.90;86.00;;;;;;5072675;28;20028;-62
2021/11/05 03:26:34;;;;;;;83.43;52.97;;;22.90;85.90;;;;;;5072389;28;20033;-61
2021/11/05 03:29:01;;;;;;;90.07;57.28;;;23.00;85.00;;;;;;5072434;28;20028;-62
2021/11/05 03:31:29;;;;;;;90.80;60.63;;;23.00;85.10;;;;;;5072389;28;20032;-63
2021/11/05 03:33:57;;;;;;;86.80;60.17;;;23.00;85.40;;;;;;5070961;28;20025;-63
2021/11/05 03:36:24;;;;;;;75.30;51.25;;;23.00;85.50;;;;;;5072188;28;20107;-63
2021/11/05 03:38:53;;;;;;;81.60;55.70;;;23.00;85.30;;;;;;5072476;28;20017;-65
2021/11/05 03:41:20;;;;;;;99.28;63.85;;;23.00;85.60;;;;;;5071938;28;20387;-62
2021/11/05 03:43:48;;;;;;;88.85;60.85;;;23.10;85.50;;;;;;5072388;28;20024;-64
2021/11/05 03:46:15;;;;;;;75.40;49.78;;;23.10;85.40;;;;;;5072271;28;20424;-66
2021/11/05 03:48:43;;;;;;;76.55;51.08;;;23.10;85.60;;;;;;5071951;28;20029;-64
2021/11/05 03:51:11;;;;;;;88.72;58.83;;;23.10;85.20;;;;;;5072537;28;20029;-65
2021/11/05 03:53:39;;;;;;;92.50;58.70;;;23.10;85.30;;;;;;5072345;28;20360;-58
2021/11/05 03:56:07;;;;;;;69.25;47.47;;;23.00;85.50;;;;;;5070817;28;20450;-58
2021/11/05 03:58:36;;;;;;;81.97;54.55;;;23.00;85.50;;;;;;5070579;28;20025;-59
2021/11/05 04:01:05;;;;;;;83.90;57.17;;;23.00;85.60;;;;;;5072540;28;20027;-63
2021/11/05 04:03:33;;;;;;;82.63;53.25;;;23.00;85.90;;;;;;5072074;28;20032;-68
2021/11/05 04:06:02;;;;;;;71.45;46.75;;;23.00;85.70;;;;;;5071829;28;20181;-58
2021/11/05 04:08:29;;;;;;;79.78;55.20;;;23.00;85.30;;;;;;5071970;28;20078;-59
2021/11/05 04:10:57;;;;;;;68.85;46.72;;;23.00;85.60;;;;;;5071844;28;20100;-60
2021/11/05 04:13:25;;;;;;;75.97;49.38;;;23.00;85.60;;;;;;5072012;28;20033;-59
2021/11/05 04:15:53;;;;;;;62.03;41.63;;;23.10;86.30;;;;;;5072323;28;20021;-64
2021/11/05 04:18:21;;;;;;;56.10;38.00;;;23.10;85.40;;;;;;5071937;28;20028;-64
2021/11/05 04:20:48;;;;;;;70.63;48.42;;;23.20;85.20;;;;;;5072187;28;20027;-64
2021/11/05 04:23:19;;;;;;;63.05;42.78;;;23.20;85.20;;;;;;5071821;28;20047;-63
2021/11/05 04:25:47;;;;;;;69.72;43.10;;;23.20;85.10;;;;;;5071614;28;20420;-59
2021/11/05 04:28:15;;;;;;;69.47;49.63;;;23.20;85.20;;;;;;5071369;28;20024;-59
2021/11/05 04:30:44;;;;;;;57.53;35.78;;;23.20;85.40;;;;;;5071801;28;20072;-71
2021/11/05 04:33:12;;;;;;;61.75;40.42;;;23.20;85.00;;;;;;5075030;28;20068;-62
2021/11/05 04:35:40;;;;;;;60.97;39.53;;;23.30;84.90;;;;;;5075222;28;20333;-65
2021/11/05 04:38:08;;;;;;;54.88;37.30;;;23.30;85.20;;;;;;5074999;28;20028;-65
2021/11/05 04:40:36;;;;;;;63.92;44.13;;;23.30;85.10;;;;;;5074837;28;20055;-58
2021/11/05 04:43:04;;;;;;;63.45;40.63;;;23.30;85.20;;;;;;5074869;28;20108;-65
2021/11/05 04:45:31;;;;;;;58.60;40.47;;;23.30;85.10;;;;;;5074916;28;20471;-64
2021/11/05 04:47:59;;;;;;;60.53;42.55;;;23.30;84.90;;;;;;5074785;28;20119;-68
2021/11/05 04:50:27;;;;;;;65.63;40.88;;;23.40;84.80;;;;;;5074639;28;20067;-62
2021/11/05 04:52:54;;;;;;;61.40;40.58;;;23.30;84.60;;;;;;5074876;28;20032;-64
2021/11/05 04:55:22;;;;;;;62.13;43.53;;;23.30;84.90;;;;;;5074002;28;20423;-66
2021/11/05 04:57:51;;;;;;;65.22;44.00;;;23.30;85.30;;;;;;5073446;28;20054;-63
2021/11/05 05:00:22;;;;;;;51.67;35.85;;;23.20;85.20;;;;;;5074189;28;20013;-65
2021/11/05 05:02:49;;;;;;;56.45;39.13;;;23.30;84.90;;;;;;5074029;28;20016;-58
2021/11/05 05:05:17;;;;;;;58.60;39.30;;;23.30;84.90;;;;;;5073417;28;20060;-66
2021/11/05 05:07:46;;;;;;;56.97;40.63;;;23.40;84.70;;;;;;5073996;28;20370;-69
2021/11/05 05:10:14;;;;;;;54.45;35.97;;;23.30;85.10;;;;;;5073323;28;20028;-58
2021/11/05 05:12:42;;;;;;;47.33;32.35;;;23.30;84.70;;;;;;5073007;28;20137;-63
2021/11/05 05:15:12;;;;;;;46.55;31.35;;;23.30;84.20;;;;;;5073273;28;20024;-66
2021/11/05 05:17:40;;;;;;;50.05;34.20;;;23.40;84.00;;;;;;5073772;28;20056;-65
2021/11/05 05:20:10;;;;;;;54.08;33.92;;;23.30;84.50;;;;;;5073692;28;20408;-66
2021/11/05 05:22:39;;;;;;;40.28;28.52;;;23.30;84.60;;;;;;5071204;28;20090;-61
2021/11/05 05:25:09;;;;;;;59.22;39.38;;;23.30;84.30;;;;;;5073431;28;20084;-68
2021/11/05 05:27:37;;;;;;;52.60;36.30;;;23.20;85.20;;;;;;5073042;28;20082;-61
2021/11/05 05:30:08;;;;;;;54.40;38.47;;;23.20;84.90;;;;;;5073186;28;20025;-64
2021/11/05 05:32:36;;;;;;;54.75;37.17;;;23.20;85.40;;;;;;5072987;28;20040;-63
2021/11/05 05:35:07;;;;;;;46.00;31.13;;;23.20;85.20;;;;;;5073644;28;20494;-66
2021/11/05 05:37:35;;;;;;;45.80;29.58;;;23.20;84.70;;;;;;5073161;28;20085;-70
2021/11/05 05:40:03;;;;;;;46.65;33.35;;;23.10;84.90;;;;;;5072396;28;20092;-66
2021/11/05 05:42:30;;;;;;;44.28;33.15;;;23.10;85.70;;;;;;5071936;28;20467;-64
2021/11/05 05:45:07;;;;;;;50.08;33.55;;;23.00;86.00;;;;;;5072856;28;20056;-69
2021/11/05 05:47:40;;;;;;;50.55;35.42;;;23.00;86.20;;;;;;5072773;28;20077;-67
2021/11/05 05:50:11;;;;;;;47.30;32.03;;;23.00;86.40;;;;;;5073087;28;20039;-63
2021/11/05 05:52:40;;;;;;;48.33;33.45;;;22.90;86.40;;;;;;5071573;28;20483;-61
2021/11/05 05:55:08;;;;;;;45.17;32.25;;;22.90;86.70;;;;;;4973520;28;2835927;-57
2021/11/05 05:57:40;;;;;;;41.33;28.92;;;22.90;86.70;;;;;;5073871;28;20024;-61
2021/11/05 06:00:11;;;;;;;43.47;29.73;;;22.90;86.60;;;;;;5073185;28;20030;-64
2021/11/05 06:02:39;;;;;;;48.60;34.20;;;22.80;86.80;;;;;;5073558;28;20378;-63
2021/11/05 06:05:07;;;;;;;43.40;30.08;;;22.80;87.40;;;;;;5073222;28;20103;-62
2021/11/05 06:07:35;;;;;;;47.08;31.60;;;22.80;87.20;;;;;;5073562;28;20024;-67
2021/11/05 06:10:03;;;;;;;37.70;27.38;;;22.70;87.30;;;;;;5073661;28;20020;-63
2021/11/05 06:12:34;;;;;;;39.40;25.38;;;22.80;87.00;;;;;;5073555;28;20424;-71
2021/11/05 06:15:01;;;;;;;39.63;26.45;;;22.70;86.80;;;;;;5073545;28;20021;-62
2021/11/05 06:17:29;;;;;;;44.67;30.90;;;22.70;87.10;;;;;;5073277;28;20490;-65
2021/11/05 06:19:56;;;;;;;45.50;30.90;;;22.70;87.80;;;;;;5055698;28;20032;-63
2021/11/05 06:22:24;;;;;;;50.00;30.55;;;22.60;87.70;;;;;;5073002;28;20649;-61
2021/11/05 06:24:51;;;;;;;40.03;26.33;;;22.70;88.20;;;;;;5071770;28;20108;-63
2021/11/05 06:27:18;;;;;;;40.40;26.45;;;22.70;87.30;;;;;;5073124;28;20028;-61
2021/11/05 06:29:46;;;;;;;41.45;28.75;;;22.60;87.60;;;;;;5073046;28;20025;-70
2021/11/05 06:32:13;;;;;;;39.40;28.77;;;22.60;88.10;;;;;;5072535;28;20062;-67
2021/11/05 06:34:41;;;;;;;40.58;27.55;;;22.60;88.10;;;;;;5071456;28;20044;-60
2021/11/05 06:37:08;;;;;;;32.33;23.05;;;22.60;87.90;;;;;;5072400;28;20024;-66
2021/11/05 06:39:36;;;;;;;39.75;24.85;;;22.60;87.60;;;;;;5071554;28;20034;-63
2021/11/05 06:42:03;;;;;;;35.90;25.40;;;22.60;87.60;;;;;;5072877;28;20421;-68
2021/11/05 06:44:31;;;;;;;41.42;28.23;;;22.60;87.90;;;;;;5055184;28;20041;-62
2021/11/05 06:46:58;;;;;;;33.20;22.30;;;22.60;88.20;;;;;;5071372;28;20025;-66
2021/11/05 06:49:26;;;;;;;35.05;22.55;;;22.50;87.30;;;;;;5071400;28;20024;-68
2021/11/05 06:51:54;;;;;;;38.38;24.92;;;22.50;87.90;;;;;;5072842;28;20051;-69
2021/11/05 06:54:23;;;;;;;29.23;19.58;;;22.50;88.10;;;;;;5072414;28;20038;-65
2021/11/05 06:56:51;;;;;;;35.35;23.00;;;22.50;87.30;;;;;;5072908;28;20040;-67
2021/11/05 06:59:22;;;;;;;31.42;20.02;;;22.50;87.90;;;;;;5072168;28;20024;-63
2021/11/05 07:01:49;;;;;;;31.40;21.27;;;22.40;87.80;;;;;;5072601;28;20033;-67
2021/11/05 07:04:16;;;;;;;26.70;19.02;;;22.40;88.10;;;;;;5072266;28;20020;-62
2021/11/05 07:06:46;;;;;;;31.73;21.30;;;22.40;87.80;;;;;;5072535;28;20040;-66
2021/11/05 07:09:15;;;;;;;28.50;18.95;;;22.40;88.40;;;;;;5072776;28;20039;-62
2021/11/05 07:11:44;;;;;;;30.17;20.50;;;22.40;88.30;;;;;;5072189;28;20029;-67
2021/11/05 07:14:13;;;;;;;32.95;21.35;;;22.30;88.50;;;;;;5070552;28;20020;-66
2021/11/05 07:16:40;;;;;;;27.73;19.77;;;22.30;88.70;;;;;;5072114;28;20067;-65
2021/11/05 07:19:08;;;;;;;32.88;22.00;;;22.20;88.90;;;;;;5072312;28;20033;-64
2021/11/05 07:21:36;;;;;;;31.38;20.63;;;22.20;88.90;;;;;;5071588;28;20412;-64
2021/11/05 07:24:04;;;;;;;27.00;19.08;;;22.20;89.00;;;;;;5072091;28;20118;-63
2021/11/05 07:26:44;;;;;;;27.92;17.95;;;22.20;89.00;;;;;;5072074;28;20095;-69
2021/11/05 07:29:13;;;;;;;29.02;21.50;;;22.20;89.00;;;;;;5072415;28;20024;-67
2021/11/05 07:31:41;;;;;;;29.75;19.50;;;22.20;89.30;;;;;;5072124;28;20046;-67
2021/11/05 07:34:09;;;;;;;29.23;19.73;;;22.10;89.20;;;;;;5072197;28;20021;-68
2021/11/05 07:36:36;;;;;;;27.13;18.42;;;22.10;89.30;;;;;;5071946;28;20036;-65
2021/11/05 07:39:07;;;;;;;24.80;18.58;;;22.10;89.50;;;;;;5068694;28;20036;-67
2021/11/05 07:41:35;;;;;;;27.10;17.67;;;22.10;89.60;;;;;;5071683;28;20362;-64
2021/11/05 07:44:03;;;;;;;27.05;17.88;;;22.10;89.50;;;;;;5071796;28;20028;-61
2021/11/05 07:46:31;;;;;;;28.17;18.38;;;22.10;89.30;;;;;;5071013;28;20024;-68
2021/11/05 07:48:59;;;;;;;21.48;16.42;;;22.10;89.60;;;;;;5071380;28;20090;-69
2021/11/05 07:51:28;;;;;;;26.63;18.48;;;22.10;89.60;;;;;;5073697;28;20451;-68
2021/11/05 07:53:56;;;;;;;27.85;17.85;;;22.10;89.70;;;;;;5072115;28;20038;-62
2021/11/05 07:56:27;;;;;;;24.83;18.23;;;22.10;89.60;;;;;;5072542;28;20097;-64
2021/11/05 07:58:54;;;;;;;26.35;17.77;;;22.10;89.60;;;;;;5073169;28;20468;-69
2021/11/05 08:01:22;;;;;;;24.98;17.52;;;22.10;89.70;;;;;;5071743;28;20032;-68
2021/11/05 08:03:50;;;;;;;23.73;16.63;;;22.00;89.70;;;;;;5088291;28;20099;-67
2021/11/05 08:06:18;;;;;;;24.23;15.68;;;22.00;89.70;;;;;;5074092;28;20371;-65
2021/11/05 08:08:45;;;;;;;23.95;15.82;;;22.00;89.80;;;;;;5075855;28;20012;-66
2021/11/05 08:11:13;;;;;;;22.20;16.40;;;22.00;89.70;;;;;;5075892;28;20042;-64
2021/11/05 08:13:41;;;;;;;21.20;16.30;;;22.00;89.70;;;;;;5074309;28;20055;-67
2021/11/05 08:16:09;;;;;;;19.75;14.57;;;22.00;89.90;;;;;;5075733;28;20024;-63
2021/11/05 08:18:37;;;;;;;21.45;14.65;;;22.00;90.00;;;;;;5075269;28;20029;-65
2021/11/05 08:21:05;;;;;;;24.40;15.70;;;22.00;90.00;;;;;;5075504;28;20021;-66
2021/11/05 08:23:32;;;;;;;21.83;14.80;;;21.90;90.00;;;;;;5075136;28;20102;-67
2021/11/05 08:25:59;;;;;;;26.42;15.80;;;21.90;90.00;;;;;;5075374;28;20024;-64
2021/11/05 08:28:27;;;;;;;24.38;16.23;;;21.90;90.10;;;;;;5075025;28;20099;-64
2021/11/05 08:30:56;;;;;;;22.98;14.73;;;21.90;90.40;;;;;;5075378;28;20082;-62
2021/11/05 08:33:23;;;;;;;25.33;15.95;;;21.90;90.10;;;;;;5075423;28;20044;-65
2021/11/05 08:35:51;;;;;;;20.42;14.57;;;21.90;90.20;;;;;;5076151;28;20017;-63
2021/11/05 08:38:21;;;;;;;26.63;13.90;;;21.90;90.20;;;;;;5075479;28;20024;-60
2021/11/05 08:40:51;;;;;;;23.95;15.57;;;21.80;90.20;;;;;;5075244;28;20016;-57
2021/11/05 08:43:31;;;;;;;20.30;13.90;;;21.90;90.20;;;;;;5075372;28;20024;-58
2021/11/05 08:46:00;;;;;;;19.52;14.10;;;21.80;90.20;;;;;;5075623;28;20399;-57
2021/11/05 08:48:29;;;;;;;24.17;14.93;;;21.80;90.30;;;;;;5074970;28;20510;-60
2021/11/05 08:51:02;;;;;;;23.23;14.52;;;21.80;90.30;;;;;;5075353;28;20455;-61
2021/11/05 08:53:29;;;;;;;21.50;14.63;;;21.80;90.30;;;;;;5075209;28;20127;-66
2021/11/05 08:55:57;;;;;;;19.25;13.95;;;21.80;90.30;;;;;;5075107;28;20041;-61
2021/11/05 08:58:24;;;;;;;20.88;13.77;;;21.80;90.40;;;;;;5074939;28;20077;-63
2021/11/05 09:00:52;;;;;;;19.50;13.32;;;21.80;90.40;;;;;;5075142;28;20020;-64
2021/11/05 09:03:19;;;;;;;21.10;14.38;;;21.70;90.40;;;;;;5075171;28;20025;-63
2021/11/05 09:05:46;;;;;;;20.92;13.60;;;21.70;90.40;;;;;;5074669;28;20029;-60
2021/11/05 09:08:15;;;;;;;19.60;12.23;;;21.70;90.50;;;;;;5074940;28;20104;-65
2021/11/05 09:10:42;;;;;;;23.30;13.30;;;21.60;90.40;;;;;;5074373;28;20455;-59
2021/11/05 09:13:10;;;;;;;19.27;12.93;;;21.70;90.50;;;;;;5074883;28;20042;-61
2021/11/05 09:15:38;;;;;;;20.98;13.88;;;21.60;90.50;;;;;;5074802;28;20486;-65
2021/11/05 09:18:09;;;;;;;19.52;12.82;;;21.60;90.50;;;;;;5074305;28;20467;-65
2021/11/05 09:20:38;;;;;;;19.73;13.13;;;21.60;90.50;;;;;;5090265;28;20016;-64
2021/11/05 09:23:06;;;;;;;19.52;13.25;;;21.60;90.50;;;;;;5074984;28;20029;-57
2021/11/05 09:25:34;;;;;;;19.65;13.25;;;21.60;90.60;;;;;;5074278;28;20028;-64
2021/11/05 09:28:01;;;;;;;19.02;12.75;;;21.60;90.70;;;;;;5074390;28;20016;-65
2021/11/05 09:30:29;;;;;;;19.40;13.00;;;21.60;90.60;;;;;;5072810;28;20467;-66
2021/11/05 09:32:56;;;;;;;22.80;14.65;;;21.60;90.60;;;;;;5074412;28;20115;-62
2021/11/05 09:35:38;;;;;;;20.30;13.32;;;21.60;90.70;;;;;;5072058;28;20078;-56
2021/11/05 09:38:11;;;;;;;21.40;13.90;;;21.60;90.70;;;;;;5070783;28;20468;-59
2021/11/05 09:41:00;;;;;;;20.75;13.13;;;21.60;90.80;;;;;;5073490;28;20028;-61
2021/11/05 09:43:29;;;;;;;19.83;12.57;;;21.60;90.90;;;;;;5073041;28;20115;-56
2021/11/05 09:46:06;;;;;;;18.42;12.18;;;21.60;90.70;;;;;;5075009;28;20388;-56
2021/11/05 09:48:39;;;;;;;16.35;12.00;;;21.60;90.90;;;;;;5074429;28;20028;-58
2021/11/05 09:51:22;;;;;;;15.43;11.20;;;21.60;90.90;;;;;;5074368;28;20044;-52
2021/11/05 09:53:59;;;;;;;18.58;11.23;;;21.60;90.80;;;;;;5074581;28;20031;-54
2021/11/05 09:56:42;;;;;;;18.83;11.85;;;21.60;91.00;;;;;;5073898;28;20055;-57
2021/11/05 09:59:13;;;;;;;16.88;11.15;;;21.50;91.00;;;;;;5074587;28;20029;-61
2021/11/05 10:01:41;;;;;;;18.53;11.13;;;21.50;91.00;;;;;;5073286;28;20036;-67
2021/11/05 10:04:12;;;;;;;19.02;10.75;;;21.50;91.00;;;;;;5074565;28;20116;-63
2021/11/05 10:06:56;;;;;;;16.77;11.75;;;21.50;91.00;;;;;;5073714;28;20382;-65
2021/11/05 10:09:24;;;;;;;16.33;10.70;;;21.50;91.00;;;;;;5073761;28;20116;-64
2021/11/05 10:11:52;;;;;;;15.00;9.68;;;21.50;91.00;;;;;;5073683;28;20037;-63
2021/11/05 10:14:23;;;;;;;16.63;10.07;;;21.50;91.00;;;;;;5073972;28;20020;-69
2021/11/05 10:17:02;;;;;;;17.60;10.20;;;21.50;91.00;;;;;;5073710;28;20024;-66
2021/11/05 10:19:59;;;;;;;17.13;10.15;;;21.50;91.00;;;;;;5073640;28;20271;-62
2021/11/05 10:22:33;;;;;;;13.40;9.55;;;21.50;91.00;;;;;;5073313;28;20069;-62
2021/11/05 10:25:22;;;;;;;14.68;9.77;;;21.50;91.00;;;;;;5073351;28;20017;-59
2021/11/05 10:28:01;;;;;;;11.98;9.27;;;21.50;91.00;;;;;;5073586;28;20078;-62
2021/11/05 10:30:30;;;;;;;14.80;8.68;;;21.40;91.00;;;;;;5072943;28;20151;-64
2021/11/05 10:33:01;;;;;;;14.02;9.35;;;21.40;91.00;;;;;;5072194;28;20114;-60
2021/11/05 10:35:29;;;;;;;13.55;8.93;;;21.40;91.00;;;;;;5072492;28;20020;-62
2021/11/05 10:38:01;;;;;;;14.32;9.02;;;21.50;91.00;;;;;;5069942;28;20483;-60
2021/11/05 10:40:33;;;;;;;;;;;21.50;91.00;;;;;;5072908;28;20032;-59
2021/11/05 10:43:00;;;;;;;11.95;8.35;;;21.40;91.00;;;;;;5073176;28;19912;-67
2021/11/05 10:45:28;;;;;;;16.13;9.00;;;21.50;91.00;;;;;;5073164;28;20029;-61
2021/11/05 10:47:57;;;;;;;15.25;8.70;;;21.40;91.30;;;;;;5072913;28;20356;-65
2021/11/05 10:50:48;;;;;;;13.07;8.98;;;21.40;91.00;;;;;;5072253;28;20356;-68
2021/11/05 10:53:21;;;;;;;12.70;8.60;;;21.40;91.00;;;;;;5068843;28;20495;-60
2021/11/05 10:55:58;;;;;;;12.90;8.15;;;21.40;91.00;;;;;;5073031;28;20063;-69
2021/11/05 10:58:33;;;;;;;16.25;8.88;;;21.30;91.00;;;;;;5071447;28;20137;-60
2021/11/05 11:01:06;;;;;;;13.73;7.90;;;21.30;91.00;;;;;;5072695;28;20032;-63
2021/11/05 11:03:38;;;;;;;12.90;8.07;;;21.30;91.00;;;;;;5072879;28;20025;-63
2021/11/05 11:06:09;;;;;;;13.48;7.93;;;21.30;91.00;;;;;;5072671;28;20062;-67
2021/11/05 11:08:40;;;;;;;13.03;7.57;;;21.30;91.00;;;;;;5072102;28;20052;-58
2021/11/05 11:11:18;;;;;;;11.15;7.32;;;21.30;91.00;;;;;;5072340;28;20028;-69
2021/11/05 11:13:51;;;;;;;9.60;6.78;;;21.30;90.90;;;;;;5072514;28;20383;-69
2021/11/05 11:16:22;;;;;;;12.77;7.70;;;21.30;90.90;;;;;;5072589;28;20475;-64
2021/11/05 11:19:00;;;;;;;11.27;7.70;;;21.30;91.00;;;;;;5072489;28;20052;-69
2021/11/05 11:21:39;;;;;;;12.38;7.15;;;21.30;91.00;;;;;;5072924;28;20024;-67
2021/11/05 11:24:09;;;;;;;10.38;6.95;;;21.30;91.00;;;;;;5072507;28;20025;-63
2021/11/05 11:26:39;;;;;;;10.25;6.63;;;21.30;91.00;;;;;;5072129;28;20027;-68
2021/11/05 11:29:09;;;;;;;15.27;7.88;;;21.30;91.00;;;;;;5070966;28;20455;-69
2021/11/05 11:31:38;;;;;;;11.30;6.95;;;21.20;90.90;;;;;;5072220;28;20036;-67
2021/11/05 11:34:07;;;;;;;11.30;6.70;;;21.20;91.00;;;;;;5071997;28;20116;-65
2021/11/05 11:36:38;;;;;;;11.77;6.38;;;21.20;91.00;;;;;;5071150;28;20471;-65
2021/11/05 11:39:08;;;;;;;12.10;6.78;;;21.20;90.90;;;;;;5070636;28;20032;-62
2021/11/05 11:41:37;;;;;;;10.68;6.90;;;21.20;91.00;;;;;;5071009;28;20025;-67
2021/11/05 11:44:07;;;;;;;12.45;7.13;;;21.20;91.00;;;;;;5071894;28;20029;-68
2021/11/05 11:46:53;;;;;;;8.35;6.18;;;21.20;91.00;;;;;;5071905;28;20032;-61
2021/11/05 11:49:38;;;;;;;11.65;6.70;;;21.20;91.00;;;;;;5072027;28;20115;-66
2021/11/05 11:52:32;;;;;;;12.23;6.50;;;21.20;91.00;;;;;;5071701;28;20036;-62
2021/11/05 11:55:14;;;;;;;9.95;6.65;;;21.20;91.00;;;;;;5072024;28;20031;-65
2021/11/05 11:57:42;;;;;;;12.35;7.05;;;21.20;91.00;;;;;;5072155;28;20082;-62
2021/11/05 12:00:17;;;;;;;11.75;6.43;;;21.10;91.00;;;;;;5071415;28;20024;-67
2021/11/05 12:03:01;;;;;;;11.25;6.75;;;21.10;90.90;;;;;;5071915;28;20382;-68
2021/11/05 12:05:38;;;;;;;9.30;6.07;;;21.10;90.90;;;;;;5072004;28;20021;-67
2021/11/05 12:08:26;;;;;;;12.75;7.05;;;21.10;91.00;;;;;;5071644;28;20032;-64
2021/11/05 12:11:20;;;;;;;11.60;6.55;;;21.10;90.90;;;;;;5071702;28;20039;-67
2021/11/05 12:14:06;;;;;;;10.52;6.22;;;21.10;90.90;;;;;;5072293;28;20073;-67
2021/11/05 12:16:35;;;;;;;9.27;5.95;;;21.10;90.90;;;;;;5071557;28;20033;-66
2021/11/05 12:19:09;;;;;;;9.38;6.13;;;21.00;90.90;;;;;;5071639;28;20467;-69
2021/11/05 12:21:38;;;;;;;10.40;5.68;;;21.00;90.90;;;;;;5072017;28;20024;-66
2021/11/05 12:24:16;;;;;;;7.38;5.55;;;21.00;90.90;;;;;;5071147;28;20048;-64
2021/11/05 12:26:57;;;;;;;11.63;6.32;;;21.00;90.90;;;;;;5071393;28;20059;-70
2021/11/05 12:29:34;;;;;;;9.68;5.75;;;21.00;90.90;;;;;;5071651;28;20029;-68
2021/11/05 12:32:31;;;;;;;9.23;6.05;;;21.00;90.90;;;;;;5071181;28;20490;-63
2021/11/05 12:35:05;;;;;;;10.55;5.68;;;21.00;90.90;;;;;;5071510;28;20036;-60
2021/11/05 12:37:39;;;;;;;8.57;5.43;;;21.10;90.90;;;;;;5071568;28;20027;-64
2021/11/05 12:40:27;;;;;;;10.82;6.03;;;21.00;90.90;;;;;;5071956;28;20029;-65